Aviation Digital Data Service (ADDS)

Output produced by METARs form (1709 UTC 24 April 2017)
found at http://www.aviationweather.gov/adds/metars/
 
OKBK 241700Z 20003KT 8000 NSC 30/03 Q1008 NOSIG
TAF OKBK 241645Z 2418/2524 14012KT 7000 FEW040 BKN080 
     TEMPO 2418/2503 -TSRA FEW025CB 
     BECMG 2500/2502 34010G20KT